createdAt,value
2023-04-29T00:00:08.697Z,101609.50
2023-04-29T00:02:35.663Z,101606.97
2023-04-29T00:05:05.476Z,101613.38
2023-04-29T00:07:32.551Z,101616.19
2023-04-29T00:09:59.440Z,101622.56
2023-04-29T00:12:26.349Z,101615.50
2023-04-29T00:14:53.070Z,101615.63
2023-04-29T00:17:19.627Z,101623.72
2023-04-29T00:19:46.137Z,101622.03
2023-04-29T00:22:12.669Z,101619.50
2023-04-29T00:24:39.200Z,101622.19
2023-04-29T00:27:06.600Z,101626.84
2023-04-29T00:29:33.152Z,101630.53
2023-04-29T00:32:00.008Z,101641.31
2023-04-29T00:34:26.695Z,101634.25
2023-04-29T00:36:53.278Z,101637.94
2023-04-29T00:39:19.777Z,101638.91
2023-04-29T00:41:46.436Z,101644.28
2023-04-29T00:44:12.952Z,101647.97
2023-04-29T00:46:39.723Z,101648.13
2023-04-29T00:49:06.976Z,101651.69
2023-04-29T00:51:34.426Z,101655.38
2023-04-29T00:54:00.988Z,101654.50
2023-04-29T00:56:30.910Z,101658.19
2023-04-29T00:58:58.131Z,101649.28
2023-04-29T01:01:24.721Z,101663.72
2023-04-29T01:03:51.605Z,101653.97
2023-04-29T01:06:18.634Z,101658.47
2023-04-29T01:09:00.206Z,101663.00
2023-04-29T01:11:34.737Z,101666.69
2023-04-29T01:14:05.496Z,101661.47
2023-04-29T01:16:49.199Z,101673.22
2023-04-29T01:19:20.305Z,101673.22
2023-04-29T01:21:51.145Z,101671.38
2023-04-29T01:24:17.948Z,101676.91
2023-04-29T01:26:55.118Z,101674.38
2023-04-29T01:29:44.892Z,101670.84
2023-04-29T01:32:23.111Z,101686.97
2023-04-29T01:35:04.647Z,101680.88
2023-04-29T01:37:47.202Z,101677.50
2023-04-29T01:40:22.547Z,101682.00
2023-04-29T01:43:01.531Z,101686.53
2023-04-29T01:45:29.147Z,101690.06
2023-04-29T01:47:58.768Z,101693.94
2023-04-29T01:50:25.535Z,101693.09
2023-04-29T01:52:52.118Z,101695.06
2023-04-29T01:55:18.890Z,101691.50
2023-04-29T01:57:45.448Z,101686.28
2023-04-29T02:00:12.229Z,101695.50
2023-04-29T02:02:39.109Z,101698.19
2023-04-29T02:05:05.892Z,101700.03
2023-04-29T02:07:32.421Z,101696.50
2023-04-29T02:09:58.986Z,101698.34
2023-04-29T02:12:25.794Z,101697.63
2023-04-29T02:14:53.360Z,101704.84
2023-04-29T02:17:19.888Z,101699.63
2023-04-29T02:19:46.487Z,101702.44
2023-04-29T02:22:13.031Z,101715.88
2023-04-29T02:24:39.529Z,101717.72
2023-04-29T02:27:06.806Z,101721.41
2023-04-29T02:29:33.451Z,101720.56
2023-04-29T02:32:00.088Z,101724.25
2023-04-29T02:34:26.661Z,101728.75
2023-04-29T02:36:53.589Z,101731.56
2023-04-29T02:39:20.630Z,101732.56
2023-04-29T02:41:47.179Z,101738.06
2023-04-29T02:44:13.719Z,101743.59
2023-04-29T02:46:45.182Z,101740.91
2023-04-29T02:49:13.451Z,101750.81
2023-04-29T02:51:41.309Z,101756.19
2023-04-29T02:54:07.910Z,101750.09
2023-04-29T02:56:34.459Z,101757.31
2023-04-29T02:59:01.213Z,101756.47
2023-04-29T03:01:27.829Z,101755.78
2023-04-29T03:03:54.885Z,101770.06
2023-04-29T03:06:21.596Z,101768.34
2023-04-29T03:08:48.118Z,101767.50
2023-04-29T03:11:14.640Z,101772.19
2023-04-29T03:13:41.230Z,101775.72
2023-04-29T03:16:08.547Z,101780.25
2023-04-29T03:18:35.101Z,101778.56
2023-04-29T03:21:04.340Z,101773.31
2023-04-29T03:23:30.937Z,101775.16
2023-04-29T03:25:57.629Z,101776.00
2023-04-29T03:28:24.232Z,101783.22
2023-04-29T03:30:50.974Z,101778.84
2023-04-29T03:33:17.514Z,101779.84
2023-04-29T03:35:44.975Z,101777.16
2023-04-29T03:38:11.728Z,101774.56
2023-04-29T03:40:38.351Z,101773.72
2023-04-29T03:43:04.934Z,101779.09
2023-04-29T03:45:31.603Z,101781.94
2023-04-29T03:47:58.127Z,101781.94
2023-04-29T03:50:25.471Z,101791.84
2023-04-29T03:52:52.215Z,101787.44
2023-04-29T03:55:18.731Z,101785.59
2023-04-29T03:57:45.305Z,101794.66
2023-04-29T04:00:12.519Z,101796.50
2023-04-29T04:02:39.227Z,101798.34
2023-04-29T04:05:06.125Z,101801.03
2023-04-29T04:07:32.783Z,101803.88
2023-04-29T04:09:59.331Z,101797.63
2023-04-29T04:12:25.829Z,101805.69
2023-04-29T04:14:53.018Z,101809.38
2023-04-29T04:17:19.774Z,101809.53
2023-04-29T04:19:46.337Z,101819.28
2023-04-29T04:22:13.159Z,101818.44
2023-04-29T04:24:39.723Z,101821.13
2023-04-29T04:27:07.144Z,101815.00
2023-04-29T04:29:33.691Z,101823.97
2023-04-29T04:32:00.494Z,101824.06
2023-04-29T04:34:27.224Z,101826.75
2023-04-29T04:36:53.814Z,101829.44
2023-04-29T04:39:20.352Z,101834.84
2023-04-29T04:41:46.924Z,101837.66
2023-04-29T04:44:14.194Z,101853.78
2023-04-29T04:46:40.751Z,101851.09
2023-04-29T04:49:07.777Z,101851.22
2023-04-29T04:51:34.271Z,101858.44
2023-04-29T04:54:00.862Z,101865.66
2023-04-29T04:56:27.411Z,101870.19
2023-04-29T04:58:53.946Z,101871.88
2023-04-29T05:01:20.679Z,101866.66
2023-04-29T05:03:47.491Z,101863.13
2023-04-29T05:06:14.682Z,101864.97
2023-04-29T05:08:41.224Z,101882.91
2023-04-29T05:11:16.162Z,101880.34
2023-04-29T05:13:42.668Z,101883.88
2023-04-29T05:16:09.244Z,101880.34
2023-04-29T05:18:36.110Z,101884.88
2023-04-29T05:21:02.677Z,101892.94
2023-04-29T05:23:29.261Z,101889.41
2023-04-29T05:25:55.986Z,101888.56
2023-04-29T05:28:22.509Z,101894.06
2023-04-29T05:30:51.981Z,101893.94
2023-04-29T05:33:18.587Z,101886.84
2023-04-29T05:35:45.100Z,101892.22
2023-04-29T05:38:11.631Z,101901.28
2023-04-29T05:40:38.436Z,101907.50
2023-04-29T05:43:04.909Z,101905.81
2023-04-29T05:45:31.431Z,101918.25
2023-04-29T05:47:57.987Z,101918.25
2023-04-29T05:50:24.598Z,101929.00
2023-04-29T05:52:51.891Z,101923.63
2023-04-29T05:55:18.509Z,101924.47
2023-04-29T05:57:45.001Z,101921.66
2023-04-29T06:00:11.900Z,101929.72
2023-04-29T06:02:50.692Z,101942.16
2023-04-29T06:05:24.767Z,101949.25
2023-04-29T06:07:51.992Z,101948.28
2023-04-29T06:10:19.103Z,101943.75
2023-04-29T06:12:47.015Z,101957.19
2023-04-29T06:15:13.609Z,101955.34
2023-04-29T06:17:40.326Z,101957.03
2023-04-29T06:20:07.534Z,101959.72
2023-04-29T06:22:34.043Z,101965.09
2023-04-29T06:25:00.691Z,101972.19
2023-04-29T06:27:28.206Z,101974.03
2023-04-29T06:29:54.912Z,101980.25
2023-04-29T06:32:21.715Z,101984.50
2023-04-29T06:34:48.205Z,101993.41
2023-04-29T06:37:14.764Z,101996.84
2023-04-29T06:39:41.330Z,101992.16
2023-04-29T06:42:07.937Z,101991.19
2023-04-29T06:44:34.475Z,101999.13
2023-04-29T06:47:01.156Z,101989.06
2023-04-29T06:49:27.707Z,102001.56
2023-04-29T06:51:54.260Z,102005.94
2023-04-29T06:54:21.427Z,102006.78
2023-04-29T06:56:48.512Z,102010.31
2023-04-29T06:59:15.330Z,102011.16
2023-04-29T07:01:44.210Z,102016.53
2023-04-29T07:04:12.110Z,102026.44
2023-04-29T07:06:39.108Z,102033.41
2023-04-29T07:09:05.709Z,102029.72
2023-04-29T07:11:32.309Z,102038.50
2023-04-29T07:13:58.867Z,102042.06
2023-04-29T07:16:26.590Z,102046.44
2023-04-29T07:18:53.302Z,102052.53
2023-04-29T07:21:19.883Z,102048.88
2023-04-29T07:23:46.465Z,102052.28
2023-04-29T07:26:15.449Z,102053.13
2023-04-29T07:28:42.636Z,102051.28
2023-04-29T07:31:09.527Z,102054.81
2023-04-29T07:33:36.313Z,102058.63
2023-04-29T07:36:03.938Z,102061.59
2023-04-29T07:38:30.799Z,102062.59
2023-04-29T07:40:57.595Z,102063.44
2023-04-29T07:43:24.224Z,102059.75
2023-04-29T07:45:50.950Z,102082.00
2023-04-29T07:48:17.509Z,102073.78
2023-04-29T07:50:44.429Z,102077.22
2023-04-29T07:53:11.100Z,102078.91
2023-04-29T07:55:38.548Z,102084.03
2023-04-29T07:58:05.131Z,102084.72
2023-04-29T08:00:31.755Z,102089.13
2023-04-29T08:02:58.626Z,102087.19
2023-04-29T08:05:26.888Z,102093.25
2023-04-29T08:07:53.792Z,102097.53
2023-04-29T08:10:22.561Z,102094.00
2023-04-29T08:12:49.910Z,102096.69
2023-04-29T08:15:18.395Z,102095.94
2023-04-29T08:17:44.979Z,102102.47
2023-04-29T08:20:11.990Z,102109.78
2023-04-29T08:22:38.580Z,102101.00
2023-04-29T08:25:05.719Z,102102.09
2023-04-29T08:27:32.295Z,102095.88
2023-04-29T08:29:59.158Z,102096.88
2023-04-29T08:32:25.801Z,102104.34
2023-04-29T08:34:53.049Z,102102.66
2023-04-29T08:37:20.745Z,102112.53
2023-04-29T08:39:48.016Z,102110.97
2023-04-29T08:42:14.626Z,102108.41
2023-04-29T08:44:41.908Z,102109.41
2023-04-29T08:47:09.110Z,102116.63
2023-04-29T08:49:38.100Z,102123.00
2023-04-29T08:52:05.001Z,102119.44
2023-04-29T08:54:32.909Z,102124.81
2023-04-29T08:57:00.630Z,102132.03
2023-04-29T08:59:28.318Z,102123.09
2023-04-29T09:01:56.394Z,102135.69
2023-04-29T09:05:08.416Z,102138.53
2023-04-29T09:07:36.184Z,102139.22
2023-04-29T09:10:04.788Z,102135.69
2023-04-29T09:12:31.496Z,102138.28
2023-04-29T09:14:59.758Z,102147.03
2023-04-29T09:17:44.391Z,102140.81
2023-04-29T09:20:22.851Z,102142.50
2023-04-29T09:22:53.479Z,102145.94
2023-04-29T09:25:20.857Z,102148.75
2023-04-29T09:27:47.616Z,102149.63
2023-04-29T09:30:16.515Z,102149.47
2023-04-29T09:32:45.139Z,102146.53
2023-04-29T09:35:29.765Z,102149.09
2023-04-29T09:38:13.870Z,102148.69
2023-04-29T09:40:57.496Z,102163.50
2023-04-29T09:43:25.330Z,102159.56
2023-04-29T09:45:51.939Z,102162.09
2023-04-29T09:48:18.871Z,102169.91
2023-04-29T09:50:59.856Z,102161.69
2023-04-29T09:53:31.409Z,102163.13
2023-04-29T09:56:00.521Z,102160.19
2023-04-29T09:58:36.891Z,102164.75
2023-04-29T10:01:04.519Z,102166.78
2023-04-29T10:03:37.924Z,102161.56
2023-04-29T10:06:06.838Z,102161.63
2023-04-29T10:08:34.652Z,102164.50
2023-04-29T10:11:03.777Z,102165.53
2023-04-29T10:13:31.419Z,102166.53
2023-04-29T10:16:09.893Z,102169.53
2023-04-29T10:18:37.904Z,102170.69
2023-04-29T10:21:09.108Z,102170.31
2023-04-29T10:23:37.551Z,102175.41
2023-04-29T10:26:06.237Z,102170.88
2023-04-29T10:28:33.268Z,102171.75
2023-04-29T10:31:05.517Z,102171.31
2023-04-29T10:33:35.374Z,102177.28
2023-04-29T10:36:03.304Z,102185.91
2023-04-29T10:38:37.007Z,102174.88
2023-04-29T10:41:08.463Z,102175.03
2023-04-29T10:43:35.271Z,102163.66
2023-04-29T10:46:34.305Z,102169.38
2023-04-29T10:49:05.021Z,102168.09
2023-04-29T10:51:35.857Z,102171.19
2023-04-29T10:54:08.294Z,102177.84
2023-04-29T10:56:43.226Z,102178.41
2023-04-29T10:59:14.547Z,102185.06
2023-04-29T11:01:52.194Z,102173.84
2023-04-29T11:04:22.859Z,102171.16
2023-04-29T11:06:56.673Z,102165.91
2023-04-29T11:09:27.232Z,102179.50
2023-04-29T11:12:05.598Z,102181.47
2023-04-29T11:14:38.768Z,102185.91
2023-04-29T11:17:10.763Z,102180.50
2023-04-29T11:19:42.239Z,102192.97
2023-04-29T11:22:18.290Z,102187.44
2023-04-29T11:24:58.695Z,102186.34
2023-04-29T11:27:27.202Z,102180.78
2023-04-29T11:29:59.011Z,102184.47
2023-04-29T11:32:44.745Z,102181.78
2023-04-29T11:35:19.703Z,102173.44
2023-04-29T11:37:47.306Z,102179.84
2023-04-29T11:40:15.254Z,102182.53
2023-04-29T11:42:49.230Z,102186.25
2023-04-29T11:45:18.270Z,102177.44
2023-04-29T11:47:46.655Z,102188.38
2023-04-29T11:50:17.098Z,102186.81
2023-04-29T11:52:44.788Z,102200.72
2023-04-29T11:55:12.180Z,102195.63
2023-04-29T11:57:40.233Z,102187.94
2023-04-29T12:00:12.900Z,102187.59
2023-04-29T12:02:40.412Z,102185.44
2023-04-29T12:05:13.086Z,102180.59
2023-04-29T12:07:40.137Z,102186.56
2023-04-29T12:10:11.736Z,102184.59
2023-04-29T12:12:40.968Z,102181.72
2023-04-29T12:15:09.883Z,102183.31
2023-04-29T12:17:37.102Z,102185.84
2023-04-29T12:20:04.221Z,102191.97
2023-04-29T12:22:33.782Z,102201.59
2023-04-29T12:25:02.855Z,102193.50
2023-04-29T12:27:29.644Z,102193.38
2023-04-29T12:29:57.260Z,102192.53
2023-04-29T12:32:25.529Z,102197.78
2023-04-29T12:34:55.529Z,102196.75
2023-04-29T12:37:25.971Z,102191.38
2023-04-29T12:39:55.082Z,102202.16
2023-04-29T12:42:21.639Z,102202.03
2023-04-29T12:44:48.939Z,102205.72
2023-04-29T12:47:16.843Z,102203.84
2023-04-29T12:49:47.975Z,102202.16
2023-04-29T12:52:14.889Z,102214.66
2023-04-29T12:54:50.813Z,102198.47
2023-04-29T12:57:17.479Z,102202.03
2023-04-29T12:59:44.014Z,102204.72
2023-04-29T13:02:10.627Z,102206.56
2023-04-29T13:04:38.145Z,102208.41
2023-04-29T13:07:06.017Z,102207.56
2023-04-29T13:09:34.037Z,102213.81
2023-04-29T13:12:02.567Z,102222.91
2023-04-29T13:14:29.218Z,102219.19
2023-04-29T13:16:55.925Z,102217.34
2023-04-29T13:21:52.263Z,102223.75
2023-04-29T13:24:20.200Z,102220.19
2023-04-29T13:26:49.584Z,102219.34
2023-04-29T13:29:17.478Z,102219.34
2023-04-29T13:31:44.190Z,102221.19
2023-04-29T13:34:10.890Z,102220.34
2023-04-29T13:36:37.497Z,102225.75
2023-04-29T13:39:04.017Z,102225.75
2023-04-29T13:41:34.437Z,102219.50
2023-04-29T13:44:02.263Z,102215.09
2023-04-29T13:46:31.475Z,102208.84
2023-04-29T13:49:22.781Z,102216.94
2023-04-29T13:57:36.856Z,102226.03
2023-04-29T14:02:25.162Z,102229.72
2023-04-29T14:04:53.400Z,102233.41
2023-04-29T14:07:20.892Z,102225.47
2023-04-29T14:09:47.529Z,102226.31
2023-04-29T14:12:14.074Z,102229.00
2023-04-29T14:14:40.678Z,102232.72
2023-04-29T14:17:07.325Z,102236.25
2023-04-29T14:19:33.834Z,102238.09
2023-04-29T14:22:00.375Z,102242.66
2023-04-29T14:24:26.864Z,102238.09
2023-04-29T14:26:53.504Z,102243.50
2023-04-29T14:29:20.883Z,102242.66
2023-04-29T14:31:47.593Z,102239.97
2023-04-29T14:34:14.246Z,102236.41
2023-04-29T14:36:41.103Z,102241.94
2023-04-29T14:39:08.399Z,102248.06
2023-04-29T14:41:34.971Z,102249.91
2023-04-29T14:44:01.650Z,102242.78
2023-04-29T14:46:29.210Z,102253.56
2023-04-29T14:48:56.159Z,102249.03
2023-04-29T14:51:22.793Z,102252.72
2023-04-29T14:53:49.335Z,102254.41
2023-04-29T14:56:19.053Z,102241.94
2023-04-29T14:58:45.685Z,102249.19
2023-04-29T15:01:12.261Z,102249.19
2023-04-29T15:06:08.296Z,102245.63
2023-04-29T15:08:34.954Z,102254.56
2023-04-29T15:11:01.493Z,102252.88
2023-04-29T15:13:30.039Z,102257.41
2023-04-29T15:15:56.948Z,102270.75
2023-04-29T15:18:24.062Z,102251.19
2023-04-29T15:20:50.628Z,102256.56
2023-04-29T15:23:17.146Z,102269.19
2023-04-29T15:25:43.740Z,102268.34
2023-04-29T15:28:10.413Z,102265.50
2023-04-29T15:30:37.020Z,102262.94
2023-04-29T15:33:04.644Z,102268.34
2023-04-29T15:35:31.676Z,102267.47
2023-04-29T15:37:59.289Z,102267.47
2023-04-29T15:40:26.217Z,102260.41
2023-04-29T15:42:52.702Z,102269.34
2023-04-29T15:45:19.325Z,102266.63
2023-04-29T15:47:46.495Z,102264.94
2023-04-29T15:50:13.243Z,102266.63
2023-04-29T15:52:39.772Z,102274.88
2023-04-29T15:55:07.314Z,102265.94
2023-04-29T15:57:34.749Z,102268.66
2023-04-29T16:00:01.627Z,102272.19
2023-04-29T16:02:28.286Z,102275.84
2023-04-29T16:04:55.231Z,102275.84
2023-04-29T16:07:21.827Z,102280.41
2023-04-29T16:09:48.393Z,102280.41
2023-04-29T16:12:15.036Z,102276.84
2023-04-29T16:14:41.860Z,102278.72
2023-04-29T16:17:08.489Z,102291.19
2023-04-29T16:19:36.599Z,102287.66
2023-04-29T16:22:03.893Z,102289.50
2023-04-29T16:24:30.475Z,102292.19
2023-04-29T16:26:57.230Z,102292.34
2023-04-29T16:29:23.815Z,102294.19
2023-04-29T16:31:50.501Z,102294.19
2023-04-29T16:34:17.363Z,102296.88
2023-04-29T16:36:43.882Z,102287.06
2023-04-29T16:39:10.398Z,102293.31
2023-04-29T16:41:37.477Z,102293.47
2023-04-29T16:44:04.117Z,102292.63
2023-04-29T16:46:32.428Z,102297.84
2023-04-29T16:48:59.115Z,102291.78
2023-04-29T16:51:26.068Z,102294.47
2023-04-29T16:53:53.515Z,102290.06
2023-04-29T16:56:21.518Z,102290.06
2023-04-29T16:58:48.633Z,102287.38
2023-04-29T17:01:15.877Z,102295.47
2023-04-29T17:03:42.601Z,102299.13
2023-04-29T17:06:09.212Z,102300.97
2023-04-29T17:08:35.841Z,102299.13
2023-04-29T17:11:04.944Z,102305.38
2023-04-29T17:13:31.628Z,102293.88
2023-04-29T17:15:58.411Z,102291.19
2023-04-29T17:18:25.076Z,102298.41
2023-04-29T17:20:51.727Z,102307.38
2023-04-29T17:23:18.361Z,102302.94
2023-04-29T17:25:45.091Z,102308.34
2023-04-29T17:28:11.738Z,102304.81
2023-04-29T17:30:38.410Z,102301.38
2023-04-29T17:33:08.786Z,102303.06
2023-04-29T17:35:35.333Z,102309.47
2023-04-29T17:38:01.871Z,102307.78
2023-04-29T17:40:28.561Z,102315.84
2023-04-29T17:42:55.090Z,102314.16
2023-04-29T17:45:21.736Z,102317.81
2023-04-29T17:47:48.488Z,102319.66
2023-04-29T17:50:15.210Z,102312.69
2023-04-29T17:52:42.386Z,102320.66
2023-04-29T17:55:09.617Z,102313.00
2023-04-29T17:57:37.981Z,102315.69
2023-04-29T18:00:07.390Z,102309.56
2023-04-29T18:02:34.813Z,102322.22
2023-04-29T18:05:03.405Z,102325.91
2023-04-29T18:07:30.066Z,102324.06
2023-04-29T18:09:57.108Z,102331.31
2023-04-29T18:12:24.777Z,102325.06
2023-04-29T18:14:52.023Z,102323.31
2023-04-29T18:17:19.107Z,102331.41
2023-04-29T18:19:51.858Z,102323.47
2023-04-29T18:22:18.635Z,102329.03
2023-04-29T18:24:46.187Z,102329.13
2023-04-29T18:27:12.779Z,102325.75
2023-04-29T18:29:39.470Z,102333.09
2023-04-29T18:32:07.955Z,102328.84
2023-04-29T18:34:35.064Z,102337.22
2023-04-29T18:37:01.899Z,102340.16
2023-04-29T18:39:28.628Z,102334.34
2023-04-29T18:41:55.973Z,102338.03
2023-04-29T18:44:22.516Z,102340.25
2023-04-29T18:46:49.261Z,102343.25
2023-04-29T18:49:17.688Z,102345.38
2023-04-29T18:51:47.600Z,102351.16
2023-04-29T18:54:16.553Z,102347.88
2023-04-29T18:56:46.479Z,102347.16
2023-04-29T18:59:18.845Z,102350.25
2023-04-29T19:01:49.035Z,102358.59
2023-04-29T19:04:16.672Z,102357.88
2023-04-29T19:06:43.540Z,102348.38
2023-04-29T19:09:11.347Z,102357.56
2023-04-29T19:11:38.044Z,102363.09
2023-04-29T19:14:04.896Z,102362.34
2023-04-29T19:16:31.547Z,102376.06
2023-04-29T19:18:58.105Z,102375.50
2023-04-29T19:21:24.681Z,102374.59
2023-04-29T19:23:51.236Z,102384.81
2023-04-29T19:26:17.961Z,102383.22
2023-04-29T19:28:44.468Z,102386.06
2023-04-29T19:31:11.823Z,102403.19
2023-04-29T19:33:38.638Z,102397.09
2023-04-29T19:36:05.201Z,102393.66
2023-04-29T19:38:31.773Z,102392.09
2023-04-29T19:40:58.332Z,102398.59
2023-04-29T19:43:24.967Z,102393.47
2023-04-29T19:45:51.533Z,102402.66
2023-04-29T19:48:18.038Z,102397.41
2023-04-29T19:50:44.653Z,102401.22
2023-04-29T19:53:11.546Z,102395.25
2023-04-29T19:55:39.901Z,102401.72
2023-04-29T19:58:07.038Z,102398.31
2023-04-29T20:00:34.524Z,102396.72
2023-04-29T20:03:01.247Z,102409.44
2023-04-29T20:05:28.814Z,102406.03
2023-04-29T20:07:56.089Z,102417.06
2023-04-29T20:10:22.774Z,102415.34
2023-04-29T20:12:49.459Z,102419.28
2023-04-29T20:15:16.447Z,102420.28
2023-04-29T20:17:43.107Z,102415.00
2023-04-29T20:20:10.556Z,102431.28
2023-04-29T20:22:37.269Z,102426.00
2023-04-29T20:25:04.110Z,102421.75
2023-04-29T20:27:30.753Z,102422.75
2023-04-29T20:29:57.473Z,102427.38
2023-04-29T20:32:24.205Z,102429.22
2023-04-29T20:34:50.973Z,102423.09
2023-04-29T20:37:17.646Z,102419.72
2023-04-29T20:39:44.517Z,102423.38
2023-04-29T20:42:11.252Z,102432.41
2023-04-29T20:44:38.456Z,102433.41
2023-04-29T20:47:05.851Z,102427.16
2023-04-29T20:49:32.827Z,102438.06
2023-04-29T20:51:59.927Z,102437.22
2023-04-29T20:54:26.487Z,102435.47
2023-04-29T20:56:53.036Z,102440.16
2023-04-29T20:59:19.562Z,102449.31
2023-04-29T21:01:46.409Z,102455.69
2023-04-29T21:04:13.029Z,102450.44
2023-04-29T21:06:39.601Z,102451.28
2023-04-29T21:09:06.160Z,102446.97
2023-04-29T21:11:32.716Z,102446.97
2023-04-29T21:13:59.288Z,102455.03
2023-04-29T21:16:26.313Z,102439.16
2023-04-29T21:18:52.963Z,102444.66
2023-04-29T21:21:19.538Z,102443.66
2023-04-29T21:23:46.177Z,102446.50
2023-04-29T21:26:14.976Z,102452.72
2023-04-29T21:28:41.768Z,102452.84
2023-04-29T21:31:15.090Z,102451.13
2023-04-29T21:33:45.086Z,102453.97
2023-04-29T21:36:12.207Z,102453.09
2023-04-29T21:38:38.734Z,102456.66
2023-04-29T21:41:06.192Z,102462.03
2023-04-29T21:43:33.349Z,102456.75
2023-04-29T21:46:00.479Z,102454.06
2023-04-29T21:48:27.522Z,102446.13
2023-04-29T21:50:54.076Z,102455.91
2023-04-29T21:53:20.812Z,102450.66
2023-04-29T21:55:47.892Z,102455.91
2023-04-29T21:58:16.007Z,102450.66
2023-04-29T22:00:51.185Z,102451.66
2023-04-29T22:03:18.020Z,102455.19
2023-04-29T22:05:44.595Z,102461.41
2023-04-29T22:08:11.409Z,102460.44
2023-04-29T22:10:40.152Z,102464.97
2023-04-29T22:13:07.530Z,102466.78
2023-04-29T22:15:34.128Z,102469.63
2023-04-29T22:18:00.909Z,102473.16
2023-04-29T22:20:30.366Z,102475.00
2023-04-29T22:22:57.092Z,102466.03
2023-04-29T22:25:23.763Z,102475.09
2023-04-29T22:27:50.395Z,102474.25
2023-04-29T22:30:17.785Z,102473.41
2023-04-29T22:32:44.567Z,102470.84
2023-04-29T22:35:11.282Z,102475.34
2023-04-29T22:37:37.914Z,102472.78
2023-04-29T22:40:04.899Z,102478.16
2023-04-29T22:42:31.420Z,102476.47
2023-04-29T22:44:57.907Z,102473.78
2023-04-29T22:47:24.434Z,102479.25
2023-04-29T22:49:50.942Z,102475.72
2023-04-29T22:52:17.452Z,102479.25
2023-04-29T22:54:44.063Z,102473.03
2023-04-29T22:57:10.737Z,102475.00
2023-04-29T22:59:37.237Z,102468.78
2023-04-29T23:02:03.812Z,102465.34
2023-04-29T23:04:32.348Z,102460.09
2023-04-29T23:06:58.942Z,102464.63
2023-04-29T23:09:26.108Z,102477.22
2023-04-29T23:11:52.648Z,102479.88
2023-04-29T23:14:21.670Z,102479.16
2023-04-29T23:16:48.226Z,102485.38
2023-04-29T23:19:14.767Z,102491.72
2023-04-29T23:21:41.468Z,102487.44
2023-04-29T23:24:07.953Z,102472.31
2023-04-29T23:26:34.449Z,102486.72
2023-04-29T23:29:01.016Z,102488.56
2023-04-29T23:31:27.600Z,102492.19
2023-04-29T23:33:54.174Z,102493.19
2023-04-29T23:36:20.698Z,102495.03
2023-04-29T23:38:47.264Z,102498.69
2023-04-29T23:41:13.780Z,102488.91
2023-04-29T23:43:40.290Z,102493.56
2023-04-29T23:46:06.884Z,102496.25
2023-04-29T23:48:33.401Z,102499.06
2023-04-29T23:50:59.948Z,102500.88
2023-04-29T23:53:26.562Z,102497.31
2023-04-29T23:55:53.134Z,102496.59
2023-04-29T23:58:19.635Z,102493.06
